sensor_id;sensor_type;location;lat;lon;timestamp;temperature;humidity
24860;DHT22;12936;52.006;4.350;2022-11-15T00:01:24;9.60;99.90
24860;DHT22;12936;52.006;4.350;2022-11-15T00:03:55;9.60;99.90
24860;DHT22;12936;52.006;4.350;2022-11-15T00:06:23;9.60;99.90
24860;DHT22;12936;52.006;4.350;2022-11-15T00:08:51;9.60;99.90
24860;DHT22;12936;52.006;4.350;2022-11-15T00:11:19;9.60;99.90
24860;DHT22;12936;52.006;4.350;2022-11-15T00:13:47;9.60;99.90
24860;DHT22;12936;52.006;4.350;2022-11-15T00:16:15;9.70;99.90
24860;DHT22;12936;52.006;4.350;2022-11-15T00:18:45;9.70;99.90
24860;DHT22;12936;52.006;4.350;2022-11-15T00:21:17;9.70;99.90
24860;DHT22;12936;52.006;4.350;2022-11-15T00:23:45;9.70;99.90
24860;DHT22;12936;52.006;4.350;2022-11-15T00:26:14;9.80;99.90
24860;DHT22;12936;52.006;4.350;2022-11-15T00:28:43;9.70;99.90
24860;DHT22;12936;52.006;4.350;2022-11-15T00:31:13;9.70;99.90
24860;DHT22;12936;52.006;4.350;2022-11-15T00:33:44;9.70;99.90
24860;DHT22;12936;52.006;4.350;2022-11-15T00:36:14;9.70;99.90
24860;DHT22;12936;52.006;4.350;2022-11-15T00:38:42;9.70;99.90
24860;DHT22;12936;52.006;4.350;2022-11-15T00:41:10;9.80;99.90
24860;DHT22;12936;52.006;4.350;2022-11-15T00:43:40;9.80;99.90
24860;DHT22;12936;52.006;4.350;2022-11-15T00:46:10;9.80;99.90
24860;DHT22;12936;52.006;4.350;2022-11-15T00:48:38;9.80;99.90
24860;DHT22;12936;52.006;4.350;2022-11-15T00:51:07;9.80;99.90
24860;DHT22;12936;52.006;4.350;2022-11-15T00:53:37;9.80;99.90
24860;DHT22;12936;52.006;4.350;2022-11-15T00:56:06;9.80;99.90
24860;DHT22;12936;52.006;4.350;2022-11-15T00:58:34;9.90;99.90
24860;DHT22;12936;52.006;4.350;2022-11-15T01:01:22;9.80;99.90
24860;DHT22;12936;52.006;4.350;2022-11-15T01:03:51;10.00;99.90
24860;DHT22;12936;52.006;4.350;2022-11-15T01:06:27;9.90;99.90
24860;DHT22;12936;52.006;4.350;2022-11-15T01:08:55;9.90;99.90
24860;DHT22;12936;52.006;4.350;2022-11-15T01:11:23;9.90;99.90
24860;DHT22;12936;52.006;4.350;2022-11-15T01:14:11;9.90;99.90
24860;DHT22;12936;52.006;4.350;2022-11-15T01:16:39;9.90;99.90
24860;DHT22;12936;52.006;4.350;2022-11-15T01:19:10;10.00;99.90
24860;DHT22;12936;52.006;4.350;2022-11-15T01:21:39;10.00;99.90
24860;DHT22;12936;52.006;4.350;2022-11-15T01:24:10;10.00;99.90
24860;DHT22;12936;52.006;4.350;2022-11-15T01:26:40;10.00;99.90
24860;DHT22;12936;52.006;4.350;2022-11-15T01:29:09;10.00;99.90
24860;DHT22;12936;52.006;4.350;2022-11-15T01:31:37;10.10;99.90
24860;DHT22;12936;52.006;4.350;2022-11-15T01:34:05;10.00;99.90
24860;DHT22;12936;52.006;4.350;2022-11-15T01:36:33;10.00;99.90
24860;DHT22;12936;52.006;4.350;2022-11-15T01:39:05;10.10;99.90
24860;DHT22;12936;52.006;4.350;2022-11-15T01:41:33;10.00;99.90
24860;DHT22;12936;52.006;4.350;2022-11-15T01:47:22;10.10;99.90
24860;DHT22;12936;52.006;4.350;2022-11-15T01:49:55;10.10;99.90
24860;DHT22;12936;52.006;4.350;2022-11-15T01:52:25;10.10;99.90
24860;DHT22;12936;52.006;4.350;2022-11-15T01:55:00;10.20;99.90
24860;DHT22;12936;52.006;4.350;2022-11-15T01:57:30;10.20;99.90
24860;DHT22;12936;52.006;4.350;2022-11-15T01:59:59;10.20;99.90
24860;DHT22;12936;52.006;4.350;2022-11-15T02:02:28;10.20;99.90
24860;DHT22;12936;52.006;4.350;2022-11-15T02:04:56;10.20;99.90
24860;DHT22;12936;52.006;4.350;2022-11-15T02:07:24;10.20;99.90
24860;DHT22;12936;52.006;4.350;2022-11-15T02:09:53;10.20;99.90
24860;DHT22;12936;52.006;4.350;2022-11-15T02:12:24;10.20;99.90
24860;DHT22;12936;52.006;4.350;2022-11-15T02:14:53;10.20;99.90
24860;DHT22;12936;52.006;4.350;2022-11-15T02:17:34;10.20;99.90
24860;DHT22;12936;52.006;4.350;2022-11-15T02:20:36;10.30;99.90
24860;DHT22;12936;52.006;4.350;2022-11-15T02:26:32;10.30;99.90
24860;DHT22;12936;52.006;4.350;2022-11-15T02:29:14;10.40;99.90
24860;DHT22;12936;52.006;4.350;2022-11-15T02:31:50;10.40;99.90
24860;DHT22;12936;52.006;4.350;2022-11-15T02:34:26;10.50;99.90
24860;DHT22;12936;52.006;4.350;2022-11-15T02:37:03;10.50;99.90
24860;DHT22;12936;52.006;4.350;2022-11-15T02:39:37;10.50;99.90
24860;DHT22;12936;52.006;4.350;2022-11-15T02:42:11;10.50;99.90
24860;DHT22;12936;52.006;4.350;2022-11-15T02:44:56;10.60;99.90
24860;DHT22;12936;52.006;4.350;2022-11-15T02:47:27;10.60;99.90
24860;DHT22;12936;52.006;4.350;2022-11-15T02:50:00;10.60;99.90
24860;DHT22;12936;52.006;4.350;2022-11-15T02:52:29;10.70;99.90
24860;DHT22;12936;52.006;4.350;2022-11-15T02:54:59;10.70;99.90
24860;DHT22;12936;52.006;4.350;2022-11-15T02:57:42;10.70;99.90
24860;DHT22;12936;52.006;4.350;2022-11-15T03:00:13;10.80;99.90
24860;DHT22;12936;52.006;4.350;2022-11-15T03:05:35;10.90;99.90
24860;DHT22;12936;52.006;4.350;2022-11-15T03:08:10;10.90;99.90
24860;DHT22;12936;52.006;4.350;2022-11-15T03:10:45;11.00;99.90
24860;DHT22;12936;52.006;4.350;2022-11-15T03:13:26;11.00;99.90
24860;DHT22;12936;52.006;4.350;2022-11-15T03:16:00;11.00;99.90
24860;DHT22;12936;52.006;4.350;2022-11-15T03:18:38;11.10;99.90
24860;DHT22;12936;52.006;4.350;2022-11-15T03:21:08;11.10;99.90
24860;DHT22;12936;52.006;4.350;2022-11-15T03:23:40;11.10;99.90
24860;DHT22;12936;52.006;4.350;2022-11-15T03:26:12;11.20;99.90
24860;DHT22;12936;52.006;4.350;2022-11-15T03:28:46;11.20;99.90
24860;DHT22;12936;52.006;4.350;2022-11-15T03:31:19;11.30;99.90
24860;DHT22;12936;52.006;4.350;2022-11-15T03:34:12;11.30;99.90
24860;DHT22;12936;52.006;4.350;2022-11-15T03:36:45;11.40;99.90
24860;DHT22;12936;52.006;4.350;2022-11-15T03:39:14;11.40;99.90
24860;DHT22;12936;52.006;4.350;2022-11-15T03:41:49;11.40;99.90
24860;DHT22;12936;52.006;4.350;2022-11-15T03:44:26;11.50;99.90
24860;DHT22;12936;52.006;4.350;2022-11-15T03:47:03;11.50;99.90
24860;DHT22;12936;52.006;4.350;2022-11-15T03:49:38;11.50;99.90
24860;DHT22;12936;52.006;4.350;2022-11-15T03:52:07;11.60;99.90
24860;DHT22;12936;52.006;4.350;2022-11-15T03:54:35;11.60;99.90
24860;DHT22;12936;52.006;4.350;2022-11-15T03:57:03;11.70;99.90
24860;DHT22;12936;52.006;4.350;2022-11-15T03:59:33;11.60;99.90
24860;DHT22;12936;52.006;4.350;2022-11-15T04:02:01;11.70;99.90
24860;DHT22;12936;52.006;4.350;2022-11-15T04:04:29;11.70;99.90
24860;DHT22;12936;52.006;4.350;2022-11-15T04:07:01;11.80;99.90
24860;DHT22;12936;52.006;4.350;2022-11-15T04:09:29;11.80;99.90
24860;DHT22;12936;52.006;4.350;2022-11-15T04:11:57;11.80;99.90
24860;DHT22;12936;52.006;4.350;2022-11-15T04:14:25;11.80;99.90
24860;DHT22;12936;52.006;4.350;2022-11-15T04:16:53;11.90;99.90
24860;DHT22;12936;52.006;4.350;2022-11-15T04:19:21;11.90;99.90
24860;DHT22;12936;52.006;4.350;2022-11-15T04:22:08;11.90;99.90
24860;DHT22;12936;52.006;4.350;2022-11-15T04:24:54;11.90;99.90
24860;DHT22;12936;52.006;4.350;2022-11-15T04:27:23;11.90;99.90
24860;DHT22;12936;52.006;4.350;2022-11-15T04:29:54;12.00;99.90
24860;DHT22;12936;52.006;4.350;2022-11-15T04:32:42;12.00;99.90
24860;DHT22;12936;52.006;4.350;2022-11-15T04:35:11;12.00;99.90
24860;DHT22;12936;52.006;4.350;2022-11-15T04:37:45;12.00;99.90
24860;DHT22;12936;52.006;4.350;2022-11-15T04:40:15;12.00;99.90
24860;DHT22;12936;52.006;4.350;2022-11-15T04:42:46;12.10;99.90
24860;DHT22;12936;52.006;4.350;2022-11-15T04:45:15;12.10;99.90
24860;DHT22;12936;52.006;4.350;2022-11-15T04:47:44;12.10;99.90
24860;DHT22;12936;52.006;4.350;2022-11-15T04:50:14;12.10;99.90
24860;DHT22;12936;52.006;4.350;2022-11-15T04:52:50;12.10;99.90
24860;DHT22;12936;52.006;4.350;2022-11-15T04:55:20;12.10;99.90
24860;DHT22;12936;52.006;4.350;2022-11-15T04:57:57;12.10;99.90
24860;DHT22;12936;52.006;4.350;2022-11-15T05:00:27;12.10;99.90
24860;DHT22;12936;52.006;4.350;2022-11-15T05:02:56;12.10;99.90
24860;DHT22;12936;52.006;4.350;2022-11-15T05:05:42;12.10;99.90
24860;DHT22;12936;52.006;4.350;2022-11-15T05:08:13;12.10;99.90
24860;DHT22;12936;52.006;4.350;2022-11-15T05:10:41;12.10;99.90
24860;DHT22;12936;52.006;4.350;2022-11-15T05:13:10;12.10;99.90
24860;DHT22;12936;52.006;4.350;2022-11-15T05:15:38;12.10;99.90
24860;DHT22;12936;52.006;4.350;2022-11-15T05:18:09;12.10;99.90
24860;DHT22;12936;52.006;4.350;2022-11-15T05:20:39;12.10;99.90
24860;DHT22;12936;52.006;4.350;2022-11-15T05:23:07;12.10;99.90
24860;DHT22;12936;52.006;4.350;2022-11-15T05:26:00;12.10;99.90
24860;DHT22;12936;52.006;4.350;2022-11-15T05:28:35;12.10;99.90
24860;DHT22;12936;52.006;4.350;2022-11-15T05:31:07;12.10;99.90
24860;DHT22;12936;52.006;4.350;2022-11-15T05:33:40;12.00;99.90
24860;DHT22;12936;52.006;4.350;2022-11-15T05:36:13;12.00;99.90
24860;DHT22;12936;52.006;4.350;2022-11-15T05:38:43;12.00;99.90
24860;DHT22;12936;52.006;4.350;2022-11-15T05:41:13;12.00;99.90
24860;DHT22;12936;52.006;4.350;2022-11-15T05:43:42;12.00;99.90
24860;DHT22;12936;52.006;4.350;2022-11-15T05:46:11;11.80;99.90
24860;DHT22;12936;52.006;4.350;2022-11-15T05:48:41;11.90;99.90
24860;DHT22;12936;52.006;4.350;2022-11-15T05:51:12;11.90;99.90
24860;DHT22;12936;52.006;4.350;2022-11-15T05:53:41;11.90;99.90
24860;DHT22;12936;52.006;4.350;2022-11-15T05:56:09;11.90;99.90
24860;DHT22;12936;52.006;4.350;2022-11-15T05:58:39;11.90;99.90
24860;DHT22;12936;52.006;4.350;2022-11-15T06:01:07;11.90;99.90
24860;DHT22;12936;52.006;4.350;2022-11-15T06:03:35;11.80;99.90
24860;DHT22;12936;52.006;4.350;2022-11-15T06:06:03;11.80;99.90
24860;DHT22;12936;52.006;4.350;2022-11-15T06:08:31;11.80;99.90
24860;DHT22;12936;52.006;4.350;2022-11-15T06:11:04;11.80;99.90
24860;DHT22;12936;52.006;4.350;2022-11-15T06:13:32;11.80;99.90
24860;DHT22;12936;52.006;4.350;2022-11-15T06:16:02;11.80;99.90
24860;DHT22;12936;52.006;4.350;2022-11-15T06:18:31;11.80;99.90
24860;DHT22;12936;52.006;4.350;2022-11-15T06:21:00;11.70;99.90
24860;DHT22;12936;52.006;4.350;2022-11-15T06:23:31;11.70;99.90
24860;DHT22;12936;52.006;4.350;2022-11-15T06:26:00;11.70;99.90
24860;DHT22;12936;52.006;4.350;2022-11-15T06:28:29;11.70;99.90
24860;DHT22;12936;52.006;4.350;2022-11-15T06:31:03;11.70;99.90
24860;DHT22;12936;52.006;4.350;2022-11-15T06:33:31;11.70;99.90
24860;DHT22;12936;52.006;4.350;2022-11-15T06:36:02;11.70;99.90
24860;DHT22;12936;52.006;4.350;2022-11-15T06:38:30;11.70;99.90
24860;DHT22;12936;52.006;4.350;2022-11-15T06:41:02;11.60;99.90
24860;DHT22;12936;52.006;4.350;2022-11-15T06:43:31;11.60;99.90
24860;DHT22;12936;52.006;4.350;2022-11-15T06:46:00;11.60;99.90
24860;DHT22;12936;52.006;4.350;2022-11-15T06:48:30;11.60;99.90
24860;DHT22;12936;52.006;4.350;2022-11-15T06:50:59;11.50;99.90
24860;DHT22;12936;52.006;4.350;2022-11-15T06:53:29;11.50;99.90
24860;DHT22;12936;52.006;4.350;2022-11-15T06:55:59;11.50;99.90
24860;DHT22;12936;52.006;4.350;2022-11-15T06:58:28;11.50;99.90
24860;DHT22;12936;52.006;4.350;2022-11-15T07:01:00;11.50;99.90
24860;DHT22;12936;52.006;4.350;2022-11-15T07:03:30;11.50;99.90
24860;DHT22;12936;52.006;4.350;2022-11-15T07:05:58;11.50;99.90
24860;DHT22;12936;52.006;4.350;2022-11-15T07:08:33;11.50;99.90
24860;DHT22;12936;52.006;4.350;2022-11-15T07:11:03;11.50;99.90
24860;DHT22;12936;52.006;4.350;2022-11-15T07:13:33;11.40;99.90
24860;DHT22;12936;52.006;4.350;2022-11-15T07:16:03;11.40;99.90
24860;DHT22;12936;52.006;4.350;2022-11-15T07:18:33;11.50;99.90
24860;DHT22;12936;52.006;4.350;2022-11-15T07:21:03;11.40;99.90
24860;DHT22;12936;52.006;4.350;2022-11-15T07:23:32;11.40;99.90
24860;DHT22;12936;52.006;4.350;2022-11-15T07:26:00;11.40;99.90
24860;DHT22;12936;52.006;4.350;2022-11-15T07:28:28;11.50;99.90
24860;DHT22;12936;52.006;4.350;2022-11-15T07:30:57;11.40;99.90
24860;DHT22;12936;52.006;4.350;2022-11-15T07:33:25;11.40;99.90
24860;DHT22;12936;52.006;4.350;2022-11-15T07:35:58;11.40;99.90
24860;DHT22;12936;52.006;4.350;2022-11-15T07:38:28;11.30;99.90
24860;DHT22;12936;52.006;4.350;2022-11-15T07:40:56;11.40;99.90
24860;DHT22;12936;52.006;4.350;2022-11-15T07:43:25;11.40;99.90
24860;DHT22;12936;52.006;4.350;2022-11-15T07:45:55;11.30;99.90
24860;DHT22;12936;52.006;4.350;2022-11-15T07:48:25;11.40;99.90
24860;DHT22;12936;52.006;4.350;2022-11-15T07:51:12;11.30;99.90
24860;DHT22;12936;52.006;4.350;2022-11-15T07:53:41;11.30;99.90
24860;DHT22;12936;52.006;4.350;2022-11-15T07:56:09;11.40;99.90
24860;DHT22;12936;52.006;4.350;2022-11-15T07:58:38;11.30;99.90
24860;DHT22;12936;52.006;4.350;2022-11-15T08:01:07;11.30;99.90
24860;DHT22;12936;52.006;4.350;2022-11-15T08:03:36;11.30;99.90
24860;DHT22;12936;52.006;4.350;2022-11-15T08:06:04;11.30;99.90
24860;DHT22;12936;52.006;4.350;2022-11-15T08:08:34;11.30;99.90
24860;DHT22;12936;52.006;4.350;2022-11-15T08:11:02;11.40;99.90
24860;DHT22;12936;52.006;4.350;2022-11-15T08:13:30;11.40;99.90
24860;DHT22;12936;52.006;4.350;2022-11-15T08:15:59;11.40;99.90
24860;DHT22;12936;52.006;4.350;2022-11-15T08:18:28;11.40;99.90
24860;DHT22;12936;52.006;4.350;2022-11-15T08:20:59;11.40;99.90
24860;DHT22;12936;52.006;4.350;2022-11-15T08:23:27;11.40;99.90
24860;DHT22;12936;52.006;4.350;2022-11-15T08:26:02;11.40;99.90
24860;DHT22;12936;52.006;4.350;2022-11-15T08:28:31;11.40;99.90
24860;DHT22;12936;52.006;4.350;2022-11-15T08:30:59;11.40;99.90
24860;DHT22;12936;52.006;4.350;2022-11-15T08:33:27;11.40;99.90
24860;DHT22;12936;52.006;4.350;2022-11-15T08:35:56;11.50;99.90
24860;DHT22;12936;52.006;4.350;2022-11-15T08:38:25;11.40;99.90
24860;DHT22;12936;52.006;4.350;2022-11-15T08:41:01;11.50;99.90
24860;DHT22;12936;52.006;4.350;2022-11-15T08:43:30;11.50;99.90
24860;DHT22;12936;52.006;4.350;2022-11-15T08:45:59;11.50;99.90
24860;DHT22;12936;52.006;4.350;2022-11-15T08:48:27;11.60;99.90
24860;DHT22;12936;52.006;4.350;2022-11-15T08:50:56;11.50;99.90
24860;DHT22;12936;52.006;4.350;2022-11-15T08:53:25;11.60;99.90
24860;DHT22;12936;52.006;4.350;2022-11-15T08:55:53;11.60;99.90
24860;DHT22;12936;52.006;4.350;2022-11-15T08:58:22;11.60;99.90
24860;DHT22;12936;52.006;4.350;2022-11-15T09:00:51;11.60;99.90
24860;DHT22;12936;52.006;4.350;2022-11-15T09:03:19;11.60;99.90
24860;DHT22;12936;52.006;4.350;2022-11-15T09:05:47;11.60;99.90
24860;DHT22;12936;52.006;4.350;2022-11-15T09:08:15;11.60;99.90
24860;DHT22;12936;52.006;4.350;2022-11-15T09:11:03;11.60;99.90
24860;DHT22;12936;52.006;4.350;2022-11-15T09:13:34;11.60;99.90
24860;DHT22;12936;52.006;4.350;2022-11-15T09:16:04;11.60;99.90
24860;DHT22;12936;52.006;4.350;2022-11-15T09:18:32;11.60;99.90
24860;DHT22;12936;52.006;4.350;2022-11-15T09:21:01;11.70;99.90
24860;DHT22;12936;52.006;4.350;2022-11-15T09:23:30;11.70;99.90
24860;DHT22;12936;52.006;4.350;2022-11-15T09:25:59;11.70;99.90
24860;DHT22;12936;52.006;4.350;2022-11-15T09:28:29;11.70;99.90
24860;DHT22;12936;52.006;4.350;2022-11-15T09:31:01;11.70;99.90
24860;DHT22;12936;52.006;4.350;2022-11-15T09:33:29;11.70;99.90
24860;DHT22;12936;52.006;4.350;2022-11-15T09:36:00;11.80;99.90
24860;DHT22;12936;52.006;4.350;2022-11-15T09:38:28;11.80;99.90
24860;DHT22;12936;52.006;4.350;2022-11-15T09:41:17;11.80;99.90
24860;DHT22;12936;52.006;4.350;2022-11-15T09:43:57;11.80;99.90
24860;DHT22;12936;52.006;4.350;2022-11-15T09:46:36;11.80;99.90
24860;DHT22;12936;52.006;4.350;2022-11-15T09:49:06;11.80;99.90
24860;DHT22;12936;52.006;4.350;2022-11-15T09:51:40;11.80;99.90
24860;DHT22;12936;52.006;4.350;2022-11-15T09:54:25;11.80;99.90
24860;DHT22;12936;52.006;4.350;2022-11-15T09:57:17;11.90;99.90
24860;DHT22;12936;52.006;4.350;2022-11-15T09:59:55;11.90;99.90
24860;DHT22;12936;52.006;4.350;2022-11-15T10:03:03;11.90;99.90
24860;DHT22;12936;52.006;4.350;2022-11-15T10:05:38;12.00;99.90
24860;DHT22;12936;52.006;4.350;2022-11-15T10:08:20;12.00;99.90
24860;DHT22;12936;52.006;4.350;2022-11-15T10:10:53;12.00;99.90
24860;DHT22;12936;52.006;4.350;2022-11-15T10:13:45;12.00;99.90
24860;DHT22;12936;52.006;4.350;2022-11-15T10:16:35;12.00;99.90
24860;DHT22;12936;52.006;4.350;2022-11-15T10:19:14;12.10;99.90
24860;DHT22;12936;52.006;4.350;2022-11-15T10:21:49;12.10;99.90
24860;DHT22;12936;52.006;4.350;2022-11-15T10:24:23;12.10;99.90
24860;DHT22;12936;52.006;4.350;2022-11-15T10:26:54;12.10;99.90
24860;DHT22;12936;52.006;4.350;2022-11-15T10:29:24;12.20;99.90
24860;DHT22;12936;52.006;4.350;2022-11-15T10:31:53;12.20;99.90
24860;DHT22;12936;52.006;4.350;2022-11-15T10:34:23;12.20;99.90
24860;DHT22;12936;52.006;4.350;2022-11-15T10:36:55;12.20;99.90
24860;DHT22;12936;52.006;4.350;2022-11-15T10:39:24;12.30;99.90
24860;DHT22;12936;52.006;4.350;2022-11-15T10:41:52;12.30;99.90
24860;DHT22;12936;52.006;4.350;2022-11-15T10:44:23;12.30;99.90
24860;DHT22;12936;52.006;4.350;2022-11-15T10:47:20;12.40;99.90
24860;DHT22;12936;52.006;4.350;2022-11-15T10:49:58;12.40;99.90
24860;DHT22;12936;52.006;4.350;2022-11-15T10:52:27;12.40;99.90
24860;DHT22;12936;52.006;4.350;2022-11-15T10:55:00;12.50;99.90
24860;DHT22;12936;52.006;4.350;2022-11-15T10:57:31;12.50;99.90
24860;DHT22;12936;52.006;4.350;2022-11-15T11:00:02;12.50;99.90
24860;DHT22;12936;52.006;4.350;2022-11-15T11:02:34;12.50;99.90
24860;DHT22;12936;52.006;4.350;2022-11-15T11:05:24;12.50;99.90
24860;DHT22;12936;52.006;4.350;2022-11-15T11:07:56;12.60;99.90
24860;DHT22;12936;52.006;4.350;2022-11-15T11:10:25;12.60;99.90
24860;DHT22;12936;52.006;4.350;2022-11-15T11:13:14;12.70;99.90
24860;DHT22;12936;52.006;4.350;2022-11-15T11:15:45;12.60;99.90
24860;DHT22;12936;52.006;4.350;2022-11-15T11:18:21;12.60;99.90
24860;DHT22;12936;52.006;4.350;2022-11-15T11:20:56;12.70;99.90
24860;DHT22;12936;52.006;4.350;2022-11-15T11:23:42;12.70;99.90
24860;DHT22;12936;52.006;4.350;2022-11-15T11:26:25;12.80;99.90
24860;DHT22;12936;52.006;4.350;2022-11-15T11:29:05;12.70;99.90
24860;DHT22;12936;52.006;4.350;2022-11-15T11:31:41;12.70;99.90
24860;DHT22;12936;52.006;4.350;2022-11-15T11:34:19;12.70;99.90
24860;DHT22;12936;52.006;4.350;2022-11-15T11:37:03;12.80;99.90
24860;DHT22;12936;52.006;4.350;2022-11-15T11:39:42;12.80;99.90
24860;DHT22;12936;52.006;4.350;2022-11-15T11:42:22;12.80;99.90
24860;DHT22;12936;52.006;4.350;2022-11-15T11:45:00;12.80;99.90
24860;DHT22;12936;52.006;4.350;2022-11-15T11:47:39;12.90;99.90
24860;DHT22;12936;52.006;4.350;2022-11-15T11:50:13;12.90;99.90
24860;DHT22;12936;52.006;4.350;2022-11-15T11:52:56;12.90;99.90
24860;DHT22;12936;52.006;4.350;2022-11-15T11:55:32;12.90;99.90
24860;DHT22;12936;52.006;4.350;2022-11-15T11:58:09;12.90;99.90
24860;DHT22;12936;52.006;4.350;2022-11-15T12:00:41;12.90;99.90
24860;DHT22;12936;52.006;4.350;2022-11-15T12:03:18;13.00;99.90
24860;DHT22;12936;52.006;4.350;2022-11-15T12:05:53;12.90;99.90
24860;DHT22;12936;52.006;4.350;2022-11-15T12:08:31;13.00;99.90
24860;DHT22;12936;52.006;4.350;2022-11-15T12:11:08;13.00;99.90
24860;DHT22;12936;52.006;4.350;2022-11-15T12:13:38;13.00;99.90
24860;DHT22;12936;52.006;4.350;2022-11-15T12:16:13;13.00;99.90
24860;DHT22;12936;52.006;4.350;2022-11-15T12:18:46;13.00;99.90
24860;DHT22;12936;52.006;4.350;2022-11-15T12:21:19;13.00;99.90
24860;DHT22;12936;52.006;4.350;2022-11-15T12:24:00;13.10;99.90
24860;DHT22;12936;52.006;4.350;2022-11-15T12:26:34;13.10;99.90
24860;DHT22;12936;52.006;4.350;2022-11-15T12:29:09;13.10;99.90
24860;DHT22;12936;52.006;4.350;2022-11-15T12:31:41;13.20;99.90
24860;DHT22;12936;52.006;4.350;2022-11-15T12:34:33;13.20;99.90
24860;DHT22;12936;52.006;4.350;2022-11-15T12:40:29;13.20;99.90
24860;DHT22;12936;52.006;4.350;2022-11-15T12:46:02;13.30;99.90
24860;DHT22;12936;52.006;4.350;2022-11-15T12:48:58;13.30;99.90
24860;DHT22;12936;52.006;4.350;2022-11-15T12:54:56;13.40;99.90
24860;DHT22;12936;52.006;4.350;2022-11-15T12:57:39;13.40;99.90
24860;DHT22;12936;52.006;4.350;2022-11-15T13:03:31;13.40;99.90
24860;DHT22;12936;52.006;4.350;2022-11-15T13:06:07;13.50;99.90
24860;DHT22;12936;52.006;4.350;2022-11-15T13:08:47;13.50;99.90
24860;DHT22;12936;52.006;4.350;2022-11-15T13:11:44;13.50;99.90
24860;DHT22;12936;52.006;4.350;2022-11-15T13:14:49;13.50;99.90
24860;DHT22;12936;52.006;4.350;2022-11-15T13:17:28;13.50;99.90
24860;DHT22;12936;52.006;4.350;2022-11-15T13:23:00;13.60;99.90
24860;DHT22;12936;52.006;4.350;2022-11-15T13:25:48;13.60;99.90
24860;DHT22;12936;52.006;4.350;2022-11-15T13:28:29;13.60;99.90
24860;DHT22;12936;52.006;4.350;2022-11-15T13:31:01;13.60;99.90
24860;DHT22;12936;52.006;4.350;2022-11-15T13:33:33;13.60;99.90
24860;DHT22;12936;52.006;4.350;2022-11-15T13:36:05;13.60;99.90
24860;DHT22;12936;52.006;4.350;2022-11-15T13:38:36;13.50;99.90
24860;DHT22;12936;52.006;4.350;2022-11-15T13:41:17;13.50;99.90
24860;DHT22;12936;52.006;4.350;2022-11-15T13:43:45;13.50;99.90
24860;DHT22;12936;52.006;4.350;2022-11-15T13:46:17;13.50;99.90
24860;DHT22;12936;52.006;4.350;2022-11-15T13:48:46;13.40;99.90
24860;DHT22;12936;52.006;4.350;2022-11-15T13:51:18;13.50;99.90
24860;DHT22;12936;52.006;4.350;2022-11-15T13:53:52;13.40;99.90
24860;DHT22;12936;52.006;4.350;2022-11-15T13:56:22;13.40;99.90
24860;DHT22;12936;52.006;4.350;2022-11-15T13:58:50;13.40;99.90
24860;DHT22;12936;52.006;4.350;2022-11-15T14:01:22;13.40;99.90
24860;DHT22;12936;52.006;4.350;2022-11-15T14:03:53;13.40;99.90
24860;DHT22;12936;52.006;4.350;2022-11-15T14:06:24;13.30;99.90
24860;DHT22;12936;52.006;4.350;2022-11-15T14:09:34;13.30;99.90
24860;DHT22;12936;52.006;4.350;2022-11-15T14:12:23;13.40;99.90
24860;DHT22;12936;52.006;4.350;2022-11-15T14:14:51;13.30;99.90
24860;DHT22;12936;52.006;4.350;2022-11-15T14:17:33;13.40;99.90
24860;DHT22;12936;52.006;4.350;2022-11-15T14:20:02;13.30;99.90
24860;DHT22;12936;52.006;4.350;2022-11-15T14:22:52;13.40;99.90
24860;DHT22;12936;52.006;4.350;2022-11-15T14:25:21;13.40;99.90
24860;DHT22;12936;52.006;4.350;2022-11-15T14:28:11;13.40;99.90
24860;DHT22;12936;52.006;4.350;2022-11-15T14:30:43;13.30;99.90
24860;DHT22;12936;52.006;4.350;2022-11-15T14:33:21;13.40;99.90
24860;DHT22;12936;52.006;4.350;2022-11-15T14:35:50;13.40;99.90
24860;DHT22;12936;52.006;4.350;2022-11-15T14:38:18;13.40;99.90
24860;DHT22;12936;52.006;4.350;2022-11-15T14:40:46;13.40;99.90
24860;DHT22;12936;52.006;4.350;2022-11-15T14:43:14;13.40;99.90
24860;DHT22;12936;52.006;4.350;2022-11-15T14:45:42;13.40;99.90
24860;DHT22;12936;52.006;4.350;2022-11-15T14:48:10;13.40;99.90
24860;DHT22;12936;52.006;4.350;2022-11-15T14:50:40;13.30;99.90
24860;DHT22;12936;52.006;4.350;2022-11-15T14:53:15;13.30;99.90
24860;DHT22;12936;52.006;4.350;2022-11-15T14:55:44;13.30;99.90
24860;DHT22;12936;52.006;4.350;2022-11-15T14:58:12;13.30;99.90
24860;DHT22;12936;52.006;4.350;2022-11-15T15:00:40;13.30;99.90
24860;DHT22;12936;52.006;4.350;2022-11-15T15:03:09;13.30;99.90
24860;DHT22;12936;52.006;4.350;2022-11-15T15:05:40;13.30;99.90
24860;DHT22;12936;52.006;4.350;2022-11-15T15:08:09;13.30;99.90
24860;DHT22;12936;52.006;4.350;2022-11-15T15:10:39;13.30;99.90
24860;DHT22;12936;52.006;4.350;2022-11-15T15:13:16;13.30;99.90
24860;DHT22;12936;52.006;4.350;2022-11-15T15:15:45;13.30;99.90
24860;DHT22;12936;52.006;4.350;2022-11-15T15:18:16;13.20;99.90
24860;DHT22;12936;52.006;4.350;2022-11-15T15:20:54;13.20;99.90
24860;DHT22;12936;52.006;4.350;2022-11-15T15:23:23;13.20;99.90
24860;DHT22;12936;52.006;4.350;2022-11-15T15:25:55;13.30;99.90
24860;DHT22;12936;52.006;4.350;2022-11-15T15:28:24;13.30;99.90
24860;DHT22;12936;52.006;4.350;2022-11-15T15:30:59;13.30;99.90
24860;DHT22;12936;52.006;4.350;2022-11-15T15:33:27;13.30;99.90
24860;DHT22;12936;52.006;4.350;2022-11-15T15:35:57;13.30;99.90
24860;DHT22;12936;52.006;4.350;2022-11-15T15:38:25;13.20;99.90
24860;DHT22;12936;52.006;4.350;2022-11-15T15:40:53;13.20;99.90
24860;DHT22;12936;52.006;4.350;2022-11-15T15:43:22;13.20;99.90
24860;DHT22;12936;52.006;4.350;2022-11-15T15:45:50;13.20;99.90
24860;DHT22;12936;52.006;4.350;2022-11-15T15:48:18;13.20;99.90
24860;DHT22;12936;52.006;4.350;2022-11-15T15:50:46;13.10;99.90
24860;DHT22;12936;52.006;4.350;2022-11-15T15:53:17;13.10;99.90
24860;DHT22;12936;52.006;4.350;2022-11-15T15:55:45;13.10;99.90
24860;DHT22;12936;52.006;4.350;2022-11-15T15:58:13;13.00;99.90
24860;DHT22;12936;52.006;4.350;2022-11-15T16:00:41;13.00;99.90
24860;DHT22;12936;52.006;4.350;2022-11-15T16:03:08;13.00;99.90
24860;DHT22;12936;52.006;4.350;2022-11-15T16:05:36;12.90;99.90
24860;DHT22;12936;52.006;4.350;2022-11-15T16:08:05;12.90;99.90
24860;DHT22;12936;52.006;4.350;2022-11-15T16:10:34;12.90;99.90
24860;DHT22;12936;52.006;4.350;2022-11-15T16:13:03;12.80;99.90
24860;DHT22;12936;52.006;4.350;2022-11-15T16:15:32;12.80;99.90
24860;DHT22;12936;52.006;4.350;2022-11-15T16:18:00;12.80;99.90
24860;DHT22;12936;52.006;4.350;2022-11-15T16:20:34;12.80;99.90
24860;DHT22;12936;52.006;4.350;2022-11-15T16:23:05;12.80;99.90
24860;DHT22;12936;52.006;4.350;2022-11-15T16:25:41;12.80;99.90
24860;DHT22;12936;52.006;4.350;2022-11-15T16:28:17;12.80;99.90
24860;DHT22;12936;52.006;4.350;2022-11-15T16:30:45;12.80;99.90
24860;DHT22;12936;52.006;4.350;2022-11-15T16:33:19;12.80;99.90